Terminal Aerodrome Forecast
Issued by NWS Wilmington, OH

Current Version | Previous Version | Text Only | Print | Product List | Glossary Off
Versions: 1 2 3 4 5 6 7 8 9 10 11 12 13 14 15 16

000
FTUS41 KILN 291100
TAFILN
TAF
KILN 291122Z 2912/3012 27006KT P6SM SCT200
     FM291600 28012G20KT P6SM SCT040
     FM292200 30008KT P6SM BKN040
     FM300400 34005KT P6SM SCT040=

USA.gov is the U.S. government's official web portal to all federal, state and local government web resources and services.